RJNH(METAR)
10/02 04:00
METAR RJNH 011900Z 04003KT 9999 FEW020 21/18 Q1018 RMK 1CU020 A3007=
戻る
トップページへ戻る
IMOC Co,.Ltd.